Pre PWC Armenia and Russian Open Cup 2016

2016-07-12 to 2016-07-19

Task-3 Overall

2016-07-16 Task-3

Race to Goal 32.3 km

Provisional

No Leg Dist. Id Radius Open Close Coordinates Altitude
1 0.0 km DS1230 500 m 13:20 15:00 Lat: 40.59046 Lon: 44.94763 2300 m
2 SS 0.5 km DS1230 1000 m 13:50 17:00 Lat: 40.59046 Lon: 44.94763 2300 m
3 4.7 km S04235 1000 m 13:50 17:00 Lat: 40.62778 Lon: 44.8934 2351 m
4 7.3 km S02197 400 m 13:50 17:00 Lat: 40.61688 Lon: 44.93499 1972 m
5 10.4 km S06191 4700 m 13:50 17:00 Lat: 40.55627 Lon: 44.98364 1908 m
6 15.9 km S04235 1000 m 13:50 17:00 Lat: 40.62778 Lon: 44.8934 2351 m
7 17.6 km S05244 2700 m 13:50 17:00 Lat: 40.65731 Lon: 44.93176 2442 m
8 22.4 km DS1230 500 m 13:50 17:00 Lat: 40.59046 Lon: 44.94763 2300 m
9 27.5 km S04235 600 m 13:50 17:00 Lat: 40.62778 Lon: 44.8934 2351 m
10 ES 31.1 km DS1230 2000 m 13:50 17:00 Lat: 40.59046 Lon: 44.94763 2300 m
11 32.3 km DS1230 800 m 13:50 17:00 Lat: 40.59046 Lon: 44.94763 2300 m
StartGate(s): 13:50

# Id Name Nat Glider Sponsor SS ES Time km/h Distance Dist.
Points
Lead.
Points
Time
Points
Total
1 950 Manuel Brechignac M FRA Ozone Enzo-2 megeve 13:50:00 14:48:21 00:58:21 31.5 32.30 421.1 100.8 475.1 997
2 311 Luca Mammucari M ITA Ozone Enzo-2 13:50:00 14:52:18 01:02:18 29.5 32.30 421.1 84.7 396.9 903
3 92 Keiko Hirakie F JPN Ozone Enzo-2 API / SKY ASAGIRI / Falhawk / KojitsuSanso 13:50:00 14:54:40 01:04:40 28.4 32.30 421.1 80.3 368.2 870
4 7177 Gianbasilio Profiti M ITA Gin Boomerang-10 SPIRITOLIBERO 13:50:00 14:55:17 01:05:17 28.1 32.30 421.1 81.2 361.4 864
5 36 Andrei Chesnokov M RUS Niviuk Icepeak-7 13:50:00 14:58:24 01:08:24 26.8 32.30 421.1 70.6 329.4 821
6 100 Andrey Eliseev M RUS Ozone Enzo no 13:50:00 14:59:41 01:09:41 26.4 32.30 421.1 70.1 317.3 809
7 135 Daria Krasnova F RUS UP Trango XC-3 UP Paragliders 13:50:00 15:01:23 01:11:23 25.7 32.30 421.1 65.9 301.8 789
8 777 Igor Kazakov M RUS Ozone Enzo-2 EXTRIM-CLASS 13:50:00 15:00:52 01:10:52 25.9 32.30 421.1 58.0 306.4 786
9 1973 Roman Persianov M RUS Niviuk Icepeak-7 13:50:00 15:00:46 01:10:46 25.9 32.30 421.1 55.8 307.3 784
10 115 Baumy Arnaud M FRA Ozone Enzo-2 www.speedriding-school.com 13:50:00 15:03:04 01:13:04 25.1 32.30 421.1 69.5 287.2 778
11 375 Sergey Tikhonov M RUS UP Trango XC-2 masterpak 13:50:00 15:02:58 01:12:58 25.2 32.30 421.1 65.4 288.1 775
12 906 Aleksei Korobkov M RUS Ozone Enzo-2 Теплый Дом 13:50:00 15:01:59 01:11:59 25.5 32.30 421.1 56.0 296.6 774
13 404 Evgeny Kalashnik M RUS Niviuk Icepeak-7 Kalashnik 13:50:00 15:03:13 01:13:13 25.1 32.30 421.1 61.6 285.9 769
14 68 Verena Puttrich F GER Ozone Mantra M6 AiR-touch 13:50:00 15:02:58 01:12:58 25.2 32.30 421.1 57.3 288.1 767
15 91 Zysset Beat M SUI Ozone Mantra LM5 13:50:00 15:02:09 01:12:09 25.5 32.30 421.1 43.1 295.1 759
16 332 Viacheslav Kopchinskii M RUS Niviuk Peak-4 13:50:00 15:03:40 01:13:40 24.9 32.30 421.1 46.8 282.1 750
17 222 Andrey Badikov M ISR Niviuk Peak-4 13:50:00 15:05:47 01:15:47 24.2 32.30 421.1 61.1 264.8 747
18 23 Alexander Drakon M RUS Niviuk Peak-3 Aperture Science 13:50:00 15:06:08 01:16:08 24.1 32.30 421.1 45.2 261.9 728
18 407 Alexander Shvedunov M RUS Niviuk Peak-3 13:50:00 15:06:54 01:16:54 23.9 32.30 421.1 50.5 255.9 728
20 87 Aleksandr Skvortsov M RUS Ozone Enzo-2 13:50:00 15:07:17 01:17:17 23.8 32.30 421.1 46.3 252.9 720
21 111 Peter Hurlimann M SUI Gin Boom GTO-2 Radio RaBe 13:50:00 15:07:51 01:17:51 23.6 32.30 421.1 49.5 248.4 719
22 80 Jochen Henrichs M GER Advance Omega X-Alps AiR-touch 13:50:00 15:09:51 01:19:51 23.0 32.30 421.1 47.1 233.2 701
23 700 Marina Olexina F RUS Niviuk Icepeak-7 ТЕХНОРОС 13:50:00 15:11:17 01:21:17 22.6 32.30 421.1 50.0 222.6 694
24 4 Aleksandr Kuchirov M RUS Gin Boomerang-X EXTRIM-CLASS 13:50:00 15:13:18 01:23:18 22.0 32.30 421.1 47.8 208.0 677
25 753 Konstantin Kalinin M RUS SkyCountry Evoltion-X 13:50:00 15:14:48 01:24:48 21.7 32.30 421.1 57.3 197.4 676
26 29 Maksim Zubarev M RUS Niviuk Icepeak-6 13:50:00 15:24:17 01:34:17 19.5 32.30 421.1 14.4 134.4 570
27 108 Aleksei Riabtsev M RUS Ozone Mantra M6 13:50:00 15:29:01 01:39:01 18.5 32.30 421.1 20.0 105.1 546
28 117 Roman Kravchenko M RUS UP Trango XC-2 13:50:00 15:11:44 01:21:44 22.5 32.30 421.0 37.1 458
29 177 Viacheslav Sapronenko M RUS Swing Nexus ABBYY FineReader 13:50:00 15:44:57 01:54:57 16.0 32.30 421.1 3.2 13.9 438
30 1162 Sergey Lokk M RUS Niviuk Peak-3 13:50:00 15:47:14 01:57:14 15.7 32.30 421.1 5.7 1.5 428
31 1603 Alexey Papyshev M RUS SkyCountry Scooter 13:50:00 16:24:19 02:34:19 11.9 32.30 421.1 421
31 256 Kirill Kostiuchenko M RUS Gin Carrera 13:50:00 15:50:03 02:00:03 15.3 32.30 421.1 421
31 860 Harutyun Atshemyan M ARM Ozone Delta-2 13:50:00 15:57:21 02:07:21 14.4 32.30 421.1 421
34 144 Sergei Kuldin M RUS SkyCountry Evoltion-X Pskov Oblsport 13:50:00 27.42 357.4 41.2 399
35 176 Konstantin Tregubov M RUS Niviuk IcePeak-7 Pro 13:50:00 19.69 256.6 26.7 283
36 59 Martin Rebord M FRA Gin Boomerang-10 Module,Sup'air,Skiteamcvc 13:50:00 18.78 244.9 19.8 265
37 1000 Andrey Shalygin M RUS MacPara Elan 13:50:00 19.77 257.7 258
38 7 Sergey Chepelev M RUS Niviuk Icepeak-7 crimea-paraplan.com 13:50:00 18.93 246.8 1.0 248
38 48 Yakau Kazlouski M BLR Advance Sigma-8 13:50:00 19.01 247.8 248
40 294 Yanick Lettry M SUI Ozone Enzo-2 Solexperts AG 13:50:00 17.55 228.8 5.8 235
41 67 Nikolay Cherpak M RUS Niviuk Peak-4 EXTRIM-CLASS 13:50:00 17.89 233.2 233
41 505 Vasiliy Gordeichuk M RUS Ozone Delta-2 EXTRIM-CLASS 13:50:00 17.90 233.4 233
43 575 Valeriy Andriyashin M RUS Gin Boomerang-X Extrim-Class 13:50:00 17.82 232.4 232
44 41 Slawek Kedziak M POL Gradient Aspen-5 13:50:00 17.75 231.4 231
44 22 Alexey Misyagin M RUS Skyman CrossAlps maiclub.ru 13:50:00 17.70 230.7 231
44 44 Vitaliy Miroshnik M RUS 777 Queen Tornado 13:50:00 17.68 230.5 231
47 37 Sato Tatsumi M JPN Ozone Enzo-2 none 13:50:00 17.53 228.5 1.4 230
48 4646 Viktor Yudkin M RUS Paraavis Vario pentagon 13:50:00 17.49 228.0 228
48 33 Sergey ZaytsevZotov M RUS Skywalk Cayenne-5 13:50:00 17.48 227.9 228
50 234 Oleg Dementyev M RUS Ozone Mantra M6 13:50:00 17.06 222.5 223
51 888 Evgeny Kazakov M RUS Ozone Delta-2 13:50:00 16.92 220.6 221
52 71 Anton Dontsov M RUS Axis Vega-5 13:50:00 16.89 220.1 220
53 6 Tigran Ayvazyan M ARM Skywalk Tequila-2 13:50:00 15.58 203.1 203
54 55 Areg Gedeonyan M ARM Ozone Rush-3 13:50:00 15.51 202.1 202
55 1357 Mihran Sahakyan M ARM Advance Sigma-8 13:50:00 11.02 143.7 144
56 107 Sergei Aliasin M RUS Ozone Delta-2 bospa 13:50:00 10.15 132.4 132
57 2445 Witold Gilarski M POL Dudek Colt 13:50:00 9.91 129.2 129
58 125 Stanislav Vedernikov M RUS Advance Sigma-7 ЭКСТРИМ-КЛАССА 13:50:00 9.83 128.1 128
59 56 Yury Golubyatnikov M RUS Axis Polaris bospa 13:50:00 7.51 97.9 98
60 13 Iaroslav Kaiumov M RUS Ozone Delta-2 13:50:00 7.43 96.8 97
61 65 Settimio Calvarese M ITA Ozone Enzo-2 13:50:00 7.39 96.4 96
62 361 Alexey Makarov M RUS Axis Venus-4 FreeFlyTeam 13:50:00 6.88 89.7 90
63 878 Tatiana Bannikova F RUS ProDesign Accura-2 13:50:00 5.00 65.2 65
63 411 Nadzeya Piatrouskaya F BLR Advance Epsilon-6 no 13:50:00 5.00 65.2 65
65 191 Anastasiia Engelson F RUS Ozone Alpina-2 DNF 0.0 0
65 5566 Klett Martin M GER Advance Omega X-Alps AiR-touch DNF 0.0 0

Pilots absent from task (ABS)

Id Name
314 David Sahakyan

Pilots not yet processed (NYP)

Id Name

Task statistics

param value
ss_distance 30.605
task_distance 32.304
launch_to_ess_distance 31.105
no_of_pilots_present 66
no_of_pilots_flying 64
no_of_pilots_lo 32
no_of_pilots_reaching_nom_dist 33
no_of_pilots_reaching_es 33
no_of_pilots_reaching_goal 32
sum_flown_distance 1525.557
best_dist 32.304
best_time 0.9725
worst_time 2.57194444444444
no_of_pilots_in_competition 67
no_of_pilots_landed_before_stop 0
sum_dist_over_min 1208.525
sum_real_dist_over_min 1208.525
sum_flown_distances 1525.557
best_real_dist 32.304
last_start_time 2016-07-16T13:50:00+04:00
first_start_time 2016-07-16T13:50:00+04:00
first_finish_time 2016-07-16T14:48:21+04:00
max_time_to_get_time_points 1.9586541461658
no_of_pilots_with_time_points 29
goalratio 0.5
arrival_weight 0
departure_weight 0
leading_weight 0.101084375
time_weight 0.476540625
distance_weight 0.422375
smallest_leading_coefficient 0.6285122015383
available_points_distance 421.128234352748
available_points_time 475.133973373436
available_points_departure 0
available_points_leading 100.785994351941
available_points_arrival 0
time_validity 0.997048202078125
launch_validity 1
distance_validity 1
stop_validity 1
day_quality 0.997048202078125
ftv_day_validity 0.997048202078125
time_points_stop_correction 0

Scoring formula settings

param value
id PWC2015
min_dist 5
nom_dist 30
nom_time 1
nom_launch 0.96
nom_goal 0.25
day_quality_override 0
bonus_gr 4
jump_the_gun_factor 0
jump_the_gun_max 0
normalize_1000_before_day_quality 0
time_points_if_not_in_goal 0
use_1000_points_for_max_day_quality 0
use_arrival_position_points 0
use_arrival_time_points 0
use_departure_points 0
use_difficulty_for_distance_points 0
use_distance_points 1
use_distance_squared_for_LC 1
use_leading_points 1
use_semi_circle_control_zone_for_goal_line 1
use_time_points 1
final_glide_decelerator none
no_final_glide_decelerator_reason
min_time_span_for_valid_task 60
score_back_time 5
use_arrival_altitude_points 0
Report created: 2016-07-16T19:38:51+04:00